Time;durP1;ratioP1;P1;durP2;ratioP2;P2;SDS_P1;SDS_P2;PMS_P1;PMS_P2;Temp;Humidity;BMP_temperature;BMP_pressure;BME280_temperature;BME280_humidity;BME280_pressure;Samples;Min_cycle;Max_cycle;Signal;HPM_P1;HPM_P2
2022/05/10 00:01:32;;;;;;;7.13;6.43;;;13.10;99.90;;;;;;5034456;28;20560;-82
2022/05/10 00:04:00;;;;;;;8.63;7.78;;;13.10;99.90;;;;;;5052719;22;20055;-82
2022/05/10 00:06:27;;;;;;;8.32;7.50;;;13.10;99.90;;;;;;5042542;28;20056;-83
2022/05/10 00:08:53;;;;;;;8.02;7.25;;;13.00;99.90;;;;;;5060842;28;20025;-83
2022/05/10 00:11:19;;;;;;;8.32;7.53;;;13.00;99.90;;;;;;5060737;28;20061;-83
2022/05/10 00:13:45;;;;;;;8.02;7.22;;;13.00;99.90;;;;;;5062752;28;20017;-81
2022/05/10 00:16:14;;;;;;;8.00;7.25;;;13.00;99.90;;;;;;5052150;28;20090;-82
2022/05/10 00:18:41;;;;;;;8.32;7.57;;;13.00;99.90;;;;;;5036854;28;20029;-83
2022/05/10 00:21:09;;;;;;;7.85;7.15;;;12.90;99.90;;;;;;5048869;28;20021;-82
2022/05/10 00:23:34;;;;;;;8.15;7.35;;;12.90;99.90;;;;;;5024275;28;20091;-83
2022/05/10 00:26:00;;;;;;;8.38;7.07;;;12.90;99.90;;;;;;5038312;28;20029;-82
2022/05/10 00:28:26;;;;;;;7.75;7.05;;;12.90;99.90;;;;;;5019798;28;20022;-83
2022/05/10 00:30:52;;;;;;;8.43;7.57;;;12.90;99.90;;;;;;5045187;28;20018;-82
2022/05/10 00:33:22;;;;;;;7.20;6.50;;;12.90;99.90;;;;;;5041851;28;20399;-81
2022/05/10 00:35:48;;;;;;;7.85;7.05;;;12.90;99.90;;;;;;5033809;28;20024;-82
2022/05/10 00:38:14;;;;;;;7.93;7.22;;;12.90;99.90;;;;;;5013296;28;20027;-83
2022/05/10 00:40:40;;;;;;;6.85;6.25;;;12.80;99.90;;;;;;5024141;28;20045;-82
2022/05/10 00:43:22;;;;;;;7.05;6.45;;;12.90;99.90;;;;;;5034731;28;20435;-82
2022/05/10 00:46:17;;;;;;;7.82;7.13;;;12.80;99.90;;;;;;5034669;28;20022;-82
2022/05/10 00:48:48;;;;;;;8.32;7.57;;;12.70;99.90;;;;;;5033745;28;20376;-83
2022/05/10 00:51:34;;;;;;;8.80;7.97;;;12.70;99.90;;;;;;5022289;28;20049;-83
2022/05/10 00:54:12;;;;;;;8.20;7.40;;;12.60;99.90;;;;;;5007967;28;20496;-82
2022/05/10 00:56:50;;;;;;;8.32;7.13;;;12.60;99.90;;;;;;5021057;28;20029;-82
2022/05/10 00:59:25;;;;;;;8.85;8.05;;;12.60;99.90;;;;;;5038877;28;20013;-82
2022/05/10 01:01:56;;;;;;;8.38;7.57;;;12.60;99.90;;;;;;5021019;28;20474;-82
2022/05/10 01:04:27;;;;;;;9.98;8.48;;;12.60;99.90;;;;;;5036521;28;20370;-83
2022/05/10 01:07:00;;;;;;;10.10;9.10;;;12.50;99.90;;;;;;5035163;28;20048;-83
2022/05/10 01:09:43;;;;;;;9.25;8.43;;;12.50;99.90;;;;;;5020510;28;20393;-83
2022/05/10 01:12:32;;;;;;;10.45;9.25;;;12.50;99.90;;;;;;5039112;28;20028;-83
2022/05/10 01:15:09;;;;;;;11.23;9.98;;;12.50;99.90;;;;;;5040507;28;20057;-82
2022/05/10 01:17:35;;;;;;;9.93;8.93;;;12.50;99.90;;;;;;5037569;28;20034;-82
2022/05/10 01:20:02;;;;;;;10.05;8.73;;;12.50;99.90;;;;;;5038821;28;20025;-82
2022/05/10 01:23:05;;;;;;;10.43;9.38;;;12.40;99.90;;;;;;5039262;28;20548;-83
2022/05/10 01:26:21;;;;;;;10.45;9.35;;;12.40;99.90;;;;;;5036703;28;20033;-83
2022/05/10 01:29:00;;;;;;;9.32;8.43;;;12.40;99.90;;;;;;4976632;28;20026;-83
2022/05/10 01:31:44;;;;;;;8.60;7.80;;;12.40;99.90;;;;;;5039279;28;20045;-83
2022/05/10 01:34:15;;;;;;;7.97;7.25;;;12.40;99.90;;;;;;5041491;28;20056;-83
2022/05/10 01:36:46;;;;;;;8.82;7.90;;;12.40;99.90;;;;;;5025424;28;20053;-83
2022/05/10 01:39:33;;;;;;;8.27;7.57;;;12.30;99.90;;;;;;5024483;28;20040;-82
2022/05/10 01:42:16;;;;;;;8.65;7.75;;;12.30;99.90;;;;;;5036139;28;20025;-82
2022/05/10 01:44:45;;;;;;;7.88;7.18;;;12.20;99.90;;;;;;5055179;28;20025;-82
2022/05/10 01:47:29;;;;;;;8.52;7.72;;;12.10;99.90;;;;;;5033063;28;20026;-83
2022/05/10 01:50:13;;;;;;;8.18;7.47;;;12.10;99.90;;;;;;5043164;28;20022;-82
2022/05/10 01:53:01;;;;;;;8.38;7.57;;;12.10;99.90;;;;;;5022370;28;20079;-83
2022/05/10 01:55:39;;;;;;;8.10;7.30;;;12.10;99.90;;;;;;5040647;28;20035;-84
2022/05/10 01:58:17;;;;;;;7.75;7.05;;;12.00;99.90;;;;;;5037948;28;20025;-82
2022/05/10 02:00:55;;;;;;;7.30;6.60;;;12.00;99.90;;;;;;5042986;28;20025;-82
2022/05/10 02:03:20;;;;;;;7.43;6.72;;;11.90;99.90;;;;;;5026451;28;20415;-83
2022/05/10 02:06:05;;;;;;;6.93;6.25;;;11.90;99.90;;;;;;5024345;28;20072;-83
2022/05/10 02:08:40;;;;;;;8.93;7.35;;;11.90;99.90;;;;;;5022659;28;20032;-83
2022/05/10 02:11:12;;;;;;;8.10;6.65;;;11.90;99.90;;;;;;5032437;28;20028;-82
2022/05/10 02:13:48;;;;;;;7.93;7.13;;;11.90;99.90;;;;;;5039525;28;20111;-82
2022/05/10 02:16:40;;;;;;;7.53;6.72;;;11.90;99.90;;;;;;5041639;28;20041;-83
2022/05/10 02:19:33;;;;;;;6.82;6.22;;;11.90;99.90;;;;;;5017430;28;20029;-84
2022/05/10 02:22:05;;;;;;;7.28;6.57;;;11.80;99.90;;;;;;5039517;28;20059;-82
2022/05/10 02:24:36;;;;;;;;;;;11.90;99.90;;;;;;5046701;28;20042;-83
2022/05/10 02:27:10;;;;;;;6.18;5.68;;;11.90;99.90;;;;;;5040068;28;19974;-83
2022/05/10 02:29:52;;;;;;;6.72;6.03;;;11.80;99.90;;;;;;5036279;28;20025;-82
2022/05/10 02:35:12;;;;;;;;;;;11.90;99.90;;;;;;5043419;28;20040;-82
2022/05/10 02:37:38;;;;;;;6.65;6.05;;;11.80;99.90;;;;;;5055773;28;19980;-82
2022/05/10 02:40:05;;;;;;;6.90;6.30;;;11.80;99.90;;;;;;5050715;28;20032;-83
2022/05/10 02:42:32;;;;;;;7.43;6.63;;;11.70;99.90;;;;;;5047779;28;20048;-83
2022/05/10 02:44:59;;;;;;;7.00;6.40;;;11.70;99.90;;;;;;5053725;28;20037;-82
2022/05/10 02:47:32;;;;;;;7.07;6.38;;;11.70;99.90;;;;;;5038429;28;20039;-81
2022/05/10 02:49:59;;;;;;;7.97;7.28;;;11.70;99.90;;;;;;5045974;28;20030;-82
2022/05/10 02:52:25;;;;;;;7.47;6.63;;;11.70;99.90;;;;;;5048831;28;20029;-82
2022/05/10 02:55:08;;;;;;;6.93;6.22;;;11.70;99.90;;;;;;5040410;28;20037;-83
2022/05/10 02:57:34;;;;;;;7.50;6.75;;;11.60;99.90;;;;;;5034245;28;20109;-82
2022/05/10 03:00:03;;;;;;;9.52;8.52;;;11.60;99.90;;;;;;5017345;28;20834;-83
2022/05/10 03:02:38;;;;;;;8.82;7.93;;;11.60;99.90;;;;;;5036074;28;20462;-83
2022/05/10 03:05:05;;;;;;;8.50;7.68;;;11.50;99.90;;;;;;5035806;28;20470;-83
2022/05/10 03:07:30;;;;;;;8.20;7.40;;;11.50;99.90;;;;;;5017507;28;20026;-82
2022/05/10 03:09:57;;;;;;;8.18;7.38;;;11.50;99.90;;;;;;5034002;28;20022;-83
2022/05/10 03:12:23;;;;;;;7.50;6.80;;;11.50;99.90;;;;;;5034958;28;20030;-83
2022/05/10 03:14:49;;;;;;;8.75;7.85;;;11.50;99.90;;;;;;5036408;28;20025;-81
2022/05/10 03:17:15;;;;;;;8.15;7.22;;;11.50;99.90;;;;;;5036355;28;20228;-82
2022/05/10 03:19:42;;;;;;;8.00;7.20;;;11.50;99.90;;;;;;5035964;28;20105;-83
2022/05/10 03:22:09;;;;;;;8.75;7.05;;;11.50;99.90;;;;;;5030800;28;20030;-83
2022/05/10 03:24:35;;;;;;;7.47;6.78;;;11.50;99.90;;;;;;5017689;28;20026;-84
2022/05/10 03:27:03;;;;;;;6.80;6.20;;;11.50;99.90;;;;;;5039501;28;20516;-84
2022/05/10 03:29:29;;;;;;;7.05;6.35;;;11.50;99.90;;;;;;5037276;28;20056;-84
2022/05/10 03:31:56;;;;;;;6.55;5.95;;;11.50;99.90;;;;;;5022032;28;20038;-83
2022/05/10 03:37:24;;;;;;;6.50;5.88;;;11.50;99.90;;;;;;5000252;28;20040;-83
2022/05/10 03:39:50;;;;;;;8.52;6.20;;;11.50;99.90;;;;;;5018469;28;20025;-83
2022/05/10 03:42:16;;;;;;;6.45;5.85;;;11.40;99.90;;;;;;5036938;28;20032;-83
2022/05/10 03:44:42;;;;;;;6.75;6.05;;;11.50;99.90;;;;;;5018960;28;20508;-83
2022/05/10 03:47:09;;;;;;;6.22;5.53;;;11.50;99.90;;;;;;5037861;28;20021;-83
2022/05/10 03:49:36;;;;;;;6.53;5.85;;;11.50;99.90;;;;;;5015820;28;20038;-84
2022/05/10 03:52:02;;;;;;;6.80;6.20;;;11.50;99.90;;;;;;5015352;28;20037;-85
2022/05/10 03:54:28;;;;;;;6.65;5.95;;;11.40;99.90;;;;;;5038493;28;20029;-84
2022/05/10 03:56:54;;;;;;;5.80;5.30;;;11.40;99.90;;;;;;5037445;28;20025;-84
2022/05/10 03:59:20;;;;;;;6.47;5.88;;;11.40;99.90;;;;;;5035436;28;20094;-83
2022/05/10 04:01:46;;;;;;;6.00;5.50;;;11.40;99.90;;;;;;5030605;28;20056;-84
2022/05/10 04:04:14;;;;;;;6.95;6.25;;;11.30;99.90;;;;;;5018681;28;20021;-84
2022/05/10 04:06:40;;;;;;;7.13;6.43;;;11.40;99.90;;;;;;5038811;28;20018;-84
2022/05/10 04:09:06;;;;;;;6.03;5.47;;;11.40;99.90;;;;;;5018111;28;20026;-82
2022/05/10 04:11:33;;;;;;;6.15;5.55;;;11.40;99.90;;;;;;5036418;28;20045;-86
2022/05/10 04:13:59;;;;;;;6.53;5.93;;;11.40;99.90;;;;;;5019449;28;20043;-83
2022/05/10 04:16:25;;;;;;;6.65;6.05;;;11.40;99.90;;;;;;5019926;28;20385;-83
2022/05/10 04:18:51;;;;;;;7.45;6.70;;;11.40;99.90;;;;;;5034175;28;20115;-83
2022/05/10 04:21:16;;;;;;;6.97;6.28;;;11.50;99.90;;;;;;5016407;28;20095;-85
2022/05/10 04:23:42;;;;;;;7.60;6.90;;;11.50;99.90;;;;;;5021124;28;20098;-84
2022/05/10 04:26:13;;;;;;;8.25;7.22;;;11.50;99.90;;;;;;5026725;28;20026;-83
2022/05/10 04:28:41;;;;;;;7.35;6.13;;;11.50;99.90;;;;;;5023769;28;20054;-83
2022/05/10 04:31:07;;;;;;;7.93;6.57;;;11.60;99.90;;;;;;5041120;28;20029;-83
2022/05/10 04:33:33;;;;;;;7.05;6.38;;;11.60;99.90;;;;;;5023047;28;20037;-84
2022/05/10 04:35:58;;;;;;;8.13;7.15;;;11.70;99.90;;;;;;5041255;28;20018;-84
2022/05/10 04:38:24;;;;;;;7.47;6.75;;;11.70;99.90;;;;;;5043505;28;20096;-83
2022/05/10 04:43:36;;;;;;;7.00;6.40;;;11.80;99.90;;;;;;5040620;28;20125;-84
2022/05/10 04:46:02;;;;;;;6.55;5.95;;;11.80;99.90;;;;;;5027551;28;20028;-84
2022/05/10 04:48:28;;;;;;;7.22;5.88;;;11.90;99.90;;;;;;5043904;28;20096;-85
2022/05/10 04:50:53;;;;;;;7.65;6.30;;;12.00;99.90;;;;;;5046465;28;20030;-83
2022/05/10 04:53:19;;;;;;;6.20;5.60;;;12.10;99.90;;;;;;5053967;28;20036;-84
2022/05/10 04:55:45;;;;;;;6.55;5.95;;;12.10;99.90;;;;;;5028576;28;20373;-84
2022/05/10 04:58:13;;;;;;;6.47;5.88;;;12.10;99.90;;;;;;5026393;28;20083;-83
2022/05/10 05:00:39;;;;;;;6.35;5.65;;;12.20;99.90;;;;;;5031390;28;20053;-83
2022/05/10 05:03:05;;;;;;;5.70;5.20;;;12.20;99.90;;;;;;5022993;28;20063;-82
2022/05/10 05:05:31;;;;;;;5.90;4.90;;;12.20;99.90;;;;;;5043885;28;20057;-82
2022/05/10 05:07:57;;;;;;;5.35;4.85;;;12.30;99.90;;;;;;5058664;28;20026;-83
2022/05/10 05:10:24;;;;;;;6.57;5.10;;;12.50;99.90;;;;;;5047692;28;20413;-84
2022/05/10 05:12:50;;;;;;;6.60;4.82;;;12.70;99.90;;;;;;5025281;28;20106;-82
2022/05/10 05:15:16;;;;;;;6.25;5.32;;;12.80;99.90;;;;;;5043206;28;20053;-82
2022/05/10 05:17:42;;;;;;;7.72;5.25;;;13.00;99.90;;;;;;5043428;28;20052;-83
2022/05/10 05:20:09;;;;;;;4.57;4.18;;;13.10;99.90;;;;;;5043712;28;20405;-82
2022/05/10 05:22:34;;;;;;;4.80;4.32;;;13.30;99.90;;;;;;5042543;28;20041;-81
2022/05/10 05:25:01;;;;;;;4.45;4.07;;;13.30;99.90;;;;;;5024828;28;20033;-83
2022/05/10 05:27:27;;;;;;;4.13;3.72;;;13.40;99.90;;;;;;5023702;28;20057;-83
2022/05/10 05:29:53;;;;;;;4.18;3.75;;;13.60;99.90;;;;;;5049868;28;20063;-83
2022/05/10 05:32:24;;;;;;;4.05;3.65;;;13.80;99.90;;;;;;5037154;28;20101;-83
2022/05/10 05:34:50;;;;;;;4.75;3.95;;;14.00;99.30;;;;;;5054093;28;20055;-83
2022/05/10 05:37:34;;;;;;;5.75;4.10;;;14.10;98.90;;;;;;5049834;28;20022;-82
2022/05/10 05:40:11;;;;;;;5.00;4.28;;;14.20;98.20;;;;;;5043743;28;20052;-82
2022/05/10 05:42:38;;;;;;;4.63;4.03;;;14.20;97.60;;;;;;5022072;28;20030;-82
2022/05/10 05:45:06;;;;;;;6.93;3.88;;;14.30;97.40;;;;;;5022728;28;20026;-82
2022/05/10 05:47:32;;;;;;;5.50;4.00;;;14.30;97.00;;;;;;5023002;28;20113;-83
2022/05/10 05:49:58;;;;;;;4.10;3.70;;;14.40;96.80;;;;;;5005170;28;20060;-82
2022/05/10 05:52:25;;;;;;;4.88;4.47;;;14.40;96.70;;;;;;5024509;28;20025;-83
2022/05/10 05:54:52;;;;;;;3.65;3.35;;;14.80;96.50;;;;;;5026200;28;20037;-83
2022/05/10 05:57:19;;;;;;;3.80;3.17;;;17.70;93.50;;;;;;5008237;28;20089;-83
2022/05/10 05:59:45;;;;;;;2.97;2.78;;;21.70;82.70;;;;;;5024767;28;20030;-83
2022/05/10 06:02:14;;;;;;;3.80;2.60;;;24.80;69.00;;;;;;5027405;28;20021;-84
2022/05/10 06:04:41;;;;;;;1.98;1.88;;;27.10;59.60;;;;;;5054019;22;20048;-81
2022/05/10 06:07:09;;;;;;;1.70;1.60;;;28.90;53.70;;;;;;5064929;28;20016;-80
2022/05/10 06:09:38;;;;;;;1.70;1.60;;;30.20;50.60;;;;;;5065463;28;20021;-81
2022/05/10 06:12:05;;;;;;;1.98;1.88;;;31.00;47.60;;;;;;5047846;28;20024;-81
2022/05/10 06:14:32;;;;;;;2.00;1.90;;;31.10;45.60;;;;;;5067485;28;20025;-81
2022/05/10 06:16:58;;;;;;;3.60;1.77;;;31.30;45.60;;;;;;5076708;28;20009;-81
2022/05/10 06:19:24;;;;;;;1.90;1.80;;;31.80;44.70;;;;;;5064702;28;20021;-81
2022/05/10 06:21:51;;;;;;;1.70;1.60;;;32.20;43.80;;;;;;5066312;28;20044;-81
2022/05/10 06:24:17;;;;;;;2.08;1.90;;;32.20;43.00;;;;;;5049544;28;20036;-81
2022/05/10 06:26:43;;;;;;;2.88;1.60;;;32.40;42.80;;;;;;5066251;28;20045;-81
2022/05/10 06:29:09;;;;;;;2.30;2.17;;;32.50;42.20;;;;;;5067187;28;20027;-82
2022/05/10 06:31:36;;;;;;;2.47;2.28;;;32.80;42.10;;;;;;5049986;28;20512;-82
2022/05/10 06:34:05;;;;;;;2.63;2.42;;;32.80;41.80;;;;;;5056984;28;20029;-81
2022/05/10 06:36:31;;;;;;;2.20;2.10;;;32.10;42.00;;;;;;5041400;28;20407;-81
2022/05/10 06:38:56;;;;;;;2.05;1.95;;;32.20;42.10;;;;;;5048600;28;20033;-80
2022/05/10 06:41:22;;;;;;;1.90;1.80;;;32.40;42.00;;;;;;5048815;28;20033;-81
2022/05/10 06:43:48;;;;;;;2.38;2.17;;;32.90;41.60;;;;;;5030177;28;20025;-81
2022/05/10 06:46:17;;;;;;;5.25;2.60;;;33.30;41.00;;;;;;5048588;28;20025;-81
2022/05/10 06:48:46;;;;;;;3.30;3.10;;;33.30;40.20;;;;;;5047473;28;20036;-80
2022/05/10 06:51:13;;;;;;;2.67;2.47;;;33.00;39.90;;;;;;5049632;28;20032;-81
2022/05/10 06:53:40;;;;;;;3.75;2.90;;;32.70;41.10;;;;;;5045472;28;20104;-80
2022/05/10 06:56:07;;;;;;;5.13;3.53;;;32.60;40.80;;;;;;5043998;28;20021;-80
2022/05/10 06:58:33;;;;;;;4.47;2.80;;;32.50;41.20;;;;;;5041529;28;20132;-81
2022/05/10 07:00:59;;;;;;;3.65;3.13;;;32.40;41.30;;;;;;5044058;28;20409;-80
2022/05/10 07:03:32;;;;;;;2.88;2.65;;;32.00;40.80;;;;;;5027676;28;20052;-79
2022/05/10 07:06:03;;;;;;;3.10;2.80;;;29.00;42.80;;;;;;5037257;28;20033;-80
2022/05/10 07:08:29;;;;;;;3.92;3.38;;;25.90;46.80;;;;;;5042661;28;20022;-81
2022/05/10 07:10:55;;;;;;;6.00;3.47;;;23.50;51.70;;;;;;5027082;28;20022;-81
2022/05/10 07:13:24;;;;;;;5.82;3.88;;;21.70;56.30;;;;;;5044936;28;20036;-79
2022/05/10 07:15:50;;;;;;;4.38;3.97;;;20.40;60.20;;;;;;5044077;28;20080;-81
2022/05/10 07:18:17;;;;;;;5.28;4.32;;;19.50;63.50;;;;;;5026713;28;20029;-80
2022/05/10 07:20:44;;;;;;;6.65;4.15;;;19.00;66.30;;;;;;5027703;28;20140;-80
2022/05/10 07:23:10;;;;;;;4.07;3.70;;;18.60;68.10;;;;;;5047651;28;20029;-80
2022/05/10 07:25:36;;;;;;;6.15;4.78;;;18.30;69.50;;;;;;5049769;28;20436;-81
2022/05/10 07:28:03;;;;;;;4.65;3.95;;;18.10;71.10;;;;;;5054291;28;20017;-81
2022/05/10 07:30:30;;;;;;;5.20;4.70;;;18.10;72.10;;;;;;5055109;28;20052;-80
2022/05/10 07:32:56;;;;;;;3.80;3.50;;;18.00;73.10;;;;;;5056470;28;20032;-81
2022/05/10 07:38:12;;;;;;;3.92;3.58;;;18.00;74.00;;;;;;5045960;28;20056;-80
2022/05/10 07:40:39;;;;;;;4.07;3.67;;;18.00;74.40;;;;;;5026247;28;20026;-80
2022/05/10 07:43:05;;;;;;;3.90;3.60;;;18.10;74.60;;;;;;5025380;28;20055;-81
2022/05/10 07:45:32;;;;;;;5.90;4.10;;;18.20;74.60;;;;;;5046810;28;20021;-80
2022/05/10 07:47:57;;;;;;;4.38;3.97;;;18.30;74.40;;;;;;5029959;28;20060;-80
2022/05/10 07:50:24;;;;;;;5.50;4.35;;;18.40;74.20;;;;;;5036991;28;20033;-80
2022/05/10 07:52:49;;;;;;;5.53;4.22;;;18.50;73.80;;;;;;5051637;28;20025;-80
2022/05/10 07:55:15;;;;;;;7.15;4.25;;;18.60;74.10;;;;;;5032042;28;20030;-81
2022/05/10 07:57:44;;;;;;;6.47;3.92;;;18.60;73.30;;;;;;5030160;28;20018;-82
2022/05/10 08:00:14;;;;;;;5.00;4.03;;;18.70;73.00;;;;;;5046491;28;20486;-80
2022/05/10 08:02:43;;;;;;;5.72;3.85;;;18.90;72.40;;;;;;5047149;28;20037;-81
2022/05/10 08:05:19;;;;;;;9.60;5.18;;;18.90;71.90;;;;;;5046343;28;20045;-82
2022/05/10 08:07:46;;;;;;;6.78;4.50;;;19.00;71.70;;;;;;5021526;28;20028;-80
2022/05/10 08:10:11;;;;;;;4.88;4.40;;;19.20;71.10;;;;;;5051133;28;20026;-81
2022/05/10 08:12:38;;;;;;;5.35;3.72;;;19.20;70.30;;;;;;5045748;28;20100;-82
2022/05/10 08:15:05;;;;;;;4.53;3.65;;;19.30;69.60;;;;;;5034585;28;20013;-82
2022/05/10 08:17:31;;;;;;;4.47;3.78;;;19.50;69.00;;;;;;5067982;28;20032;-81
2022/05/10 08:19:57;;;;;;;4.78;4.15;;;19.60;68.40;;;;;;5050490;28;20106;-82
2022/05/10 08:22:23;;;;;;;6.38;3.53;;;19.70;68.50;;;;;;5067291;28;20466;-80
2022/05/10 08:24:48;;;;;;;4.38;3.97;;;19.80;68.60;;;;;;5048272;28;20022;-81
2022/05/10 08:27:14;;;;;;;5.53;4.28;;;19.80;68.30;;;;;;5029747;28;20044;-82
2022/05/10 08:29:41;;;;;;;7.65;4.80;;;19.80;68.10;;;;;;5046804;28;20033;-81
2022/05/10 08:32:08;;;;;;;7.20;5.20;;;19.80;67.90;;;;;;5046982;28;20105;-80
2022/05/10 08:34:35;;;;;;;6.75;4.68;;;19.90;67.40;;;;;;5044378;28;20030;-81
2022/05/10 08:37:05;;;;;;;7.30;4.60;;;20.00;67.30;;;;;;5031311;28;20133;-81
2022/05/10 08:39:31;;;;;;;6.93;4.00;;;20.10;67.10;;;;;;5024337;28;20117;-81
2022/05/10 08:42:09;;;;;;;8.65;4.53;;;20.10;66.50;;;;;;5008267;28;20022;-81
2022/05/10 08:44:40;;;;;;;4.25;3.78;;;20.20;65.90;;;;;;5034059;28;20462;-82
2022/05/10 08:47:07;;;;;;;4.00;3.60;;;20.50;65.90;;;;;;5025078;28;20026;-82
2022/05/10 08:49:43;;;;;;;3.60;3.30;;;20.60;64.40;;;;;;5025265;28;20021;-81
2022/05/10 08:52:11;;;;;;;4.10;3.75;;;20.80;63.80;;;;;;5044953;28;20029;-82
2022/05/10 08:54:38;;;;;;;3.67;3.03;;;21.10;62.90;;;;;;5038923;28;20041;-82
2022/05/10 08:57:12;;;;;;;4.10;3.70;;;21.40;62.30;;;;;;5020446;28;20038;-82
2022/05/10 08:59:50;;;;;;;3.05;2.83;;;21.60;60.20;;;;;;5042676;28;20371;-81
2022/05/10 09:02:22;;;;;;;3.45;3.25;;;21.70;59.30;;;;;;5039293;28;20034;-81
2022/05/10 09:05:01;;;;;;;3.45;2.78;;;21.70;58.70;;;;;;5034713;28;20060;-82
2022/05/10 09:07:36;;;;;;;3.05;2.75;;;21.80;58.10;;;;;;5030400;28;20038;-82
2022/05/10 09:10:25;;;;;;;2.85;2.60;;;22.00;57.10;;;;;;5005723;28;20057;-83
2022/05/10 09:13:01;;;;;;;2.65;2.45;;;22.10;57.10;;;;;;5025383;28;20029;-82
2022/05/10 09:15:32;;;;;;;3.67;3.38;;;22.20;56.70;;;;;;5033076;28;20025;-82
2022/05/10 09:17:58;;;;;;;4.53;2.85;;;22.40;55.60;;;;;;5044115;28;20374;-81
2022/05/10 09:20:24;;;;;;;2.50;2.30;;;22.50;54.10;;;;;;5044672;28;20032;-82
2022/05/10 09:23:05;;;;;;;3.60;3.30;;;22.60;53.30;;;;;;5044685;28;20029;-83
2022/05/10 09:25:43;;;;;;;3.20;3.00;;;22.70;52.60;;;;;;5046179;28;20026;-81
2022/05/10 09:28:28;;;;;;;4.15;3.40;;;22.60;52.80;;;;;;5023921;28;20510;-82
2022/05/10 09:36:27;;;;;;;2.70;2.50;;;22.90;53.10;;;;;;5038424;28;20075;-82
2022/05/10 09:39:01;;;;;;;3.53;3.22;;;23.10;52.40;;;;;;5027010;28;20016;-82
2022/05/10 09:41:35;;;;;;;3.35;3.00;;;23.30;51.40;;;;;;5035787;28;20029;-82
2022/05/10 09:44:28;;;;;;;3.42;2.85;;;23.20;50.20;;;;;;5023658;28;20449;-83
2022/05/10 09:47:17;;;;;;;4.30;3.22;;;23.10;50.60;;;;;;5041407;28;20071;-82
2022/05/10 09:49:43;;;;;;;3.85;3.50;;;23.20;51.00;;;;;;5033074;28;20036;-80
2022/05/10 09:52:27;;;;;;;4.05;3.65;;;23.30;51.00;;;;;;5057408;28;20045;-83
2022/05/10 09:54:56;;;;;;;6.70;4.85;;;23.30;51.10;;;;;;5039826;28;20028;-83
2022/05/10 09:57:35;;;;;;;5.93;5.00;;;23.50;51.00;;;;;;5004287;28;20025;-82
2022/05/10 10:00:04;;;;;;;5.75;3.75;;;23.70;50.80;;;;;;5039793;28;20131;-81
2022/05/10 10:02:36;;;;;;;7.03;5.30;;;23.60;51.20;;;;;;5024386;28;20033;-82
2022/05/10 10:05:16;;;;;;;;;;;23.80;50.80;;;;;;5044303;28;20343;-81
2022/05/10 10:07:51;;;;;;;6.38;4.57;;;23.80;51.10;;;;;;5042003;28;19905;-80
2022/05/10 10:10:34;;;;;;;4.45;4.05;;;24.10;50.50;;;;;;5029144;28;20152;-81
2022/05/10 10:13:20;;;;;;;5.28;3.85;;;24.40;50.00;;;;;;5023453;28;20493;-81
2022/05/10 10:15:46;;;;;;;4.25;3.83;;;24.40;49.70;;;;;;5041672;28;20090;-82
2022/05/10 10:18:32;;;;;;;4.05;3.58;;;24.30;50.00;;;;;;5041586;28;20032;-83
2022/05/10 10:20:59;;;;;;;6.22;4.50;;;24.20;50.10;;;;;;5042144;28;20366;-82
2022/05/10 10:23:54;;;;;;;4.55;3.70;;;24.20;49.80;;;;;;5043070;28;20045;-83
2022/05/10 10:26:33;;;;;;;6.22;4.53;;;24.10;49.90;;;;;;5041417;28;20107;-83
2022/05/10 10:29:08;;;;;;;4.78;3.65;;;24.20;49.60;;;;;;5025673;28;20030;-82
2022/05/10 10:31:51;;;;;;;5.07;3.65;;;24.30;49.90;;;;;;5022577;28;20022;-81
2022/05/10 10:34:20;;;;;;;3.28;3.00;;;24.80;49.20;;;;;;5012899;28;20052;-83
2022/05/10 10:36:59;;;;;;;6.22;5.20;;;25.20;48.50;;;;;;5026044;28;20029;-83
2022/05/10 10:39:54;;;;;;;5.22;3.40;;;25.40;46.90;;;;;;5040100;28;20033;-83
2022/05/10 10:42:54;;;;;;;4.35;3.95;;;25.30;47.60;;;;;;5025929;28;20042;-82
2022/05/10 10:45:30;;;;;;;4.63;3.42;;;25.40;47.00;;;;;;5043127;28;20059;-82
2022/05/10 10:48:07;;;;;;;3.60;3.20;;;24.90;47.10;;;;;;5041595;28;20060;-81
2022/05/10 10:50:35;;;;;;;5.20;4.70;;;24.40;48.00;;;;;;5031146;28;20010;-81
2022/05/10 10:53:03;;;;;;;4.15;3.78;;;24.20;48.30;;;;;;5050668;28;20052;-81
2022/05/10 10:55:43;;;;;;;5.50;3.78;;;24.40;48.70;;;;;;5042563;28;20096;-83
2022/05/10 10:58:38;;;;;;;3.40;3.10;;;24.60;48.00;;;;;;5042184;28;20101;-82
2022/05/10 11:01:29;;;;;;;6.57;3.88;;;24.50;47.70;;;;;;5040831;28;20022;-82
2022/05/10 11:04:13;;;;;;;5.78;3.88;;;24.60;47.00;;;;;;5041000;28;20034;-82
2022/05/10 11:06:48;;;;;;;4.55;3.33;;;24.90;46.80;;;;;;5031109;28;20029;-82
2022/05/10 11:09:50;;;;;;;4.60;3.90;;;24.90;47.10;;;;;;5040708;28;20017;-82
2022/05/10 11:12:27;;;;;;;5.18;3.72;;;24.90;46.50;;;;;;5040475;28;20096;-82
2022/05/10 11:15:16;;;;;;;4.53;4.10;;;24.90;45.80;;;;;;5043093;28;20017;-82
2022/05/10 11:17:48;;;;;;;6.03;4.30;;;25.10;45.50;;;;;;5042186;28;20025;-82
2022/05/10 11:20:27;;;;;;;4.57;3.55;;;25.70;44.80;;;;;;5024218;28;20026;-83
2022/05/10 11:23:03;;;;;;;3.78;2.95;;;26.00;44.50;;;;;;5023577;28;20091;-83
2022/05/10 11:25:54;;;;;;;4.60;3.40;;;26.30;43.80;;;;;;5024743;28;20109;-83
2022/05/10 11:28:51;;;;;;;6.27;3.77;;;26.50;43.00;;;;;;5043788;28;20025;-82
2022/05/10 11:31:29;;;;;;;8.25;4.55;;;26.60;42.90;;;;;;5025604;28;20025;-81
2022/05/10 11:34:07;;;;;;;4.55;4.15;;;26.00;43.80;;;;;;5052735;28;20018;-81
2022/05/10 11:36:33;;;;;;;6.55;4.50;;;25.10;44.90;;;;;;5049566;28;20013;-82
2022/05/10 11:39:01;;;;;;;4.38;3.95;;;24.60;46.10;;;;;;5050883;28;20053;-81
2022/05/10 11:41:30;;;;;;;6.05;3.83;;;24.30;46.80;;;;;;5056373;28;20045;-80
2022/05/10 11:44:34;;;;;;;4.03;3.45;;;24.00;47.50;;;;;;5056645;28;20044;-81
2022/05/10 11:47:27;;;;;;;3.28;3.00;;;23.60;48.40;;;;;;5032227;28;20029;-83
2022/05/10 11:50:21;;;;;;;5.53;3.30;;;23.70;48.90;;;;;;5050374;28;20105;-81
2022/05/10 11:53:19;;;;;;;3.35;3.05;;;24.40;47.90;;;;;;5051352;28;20473;-82
2022/05/10 11:55:53;;;;;;;3.15;2.92;;;25.30;46.10;;;;;;5039903;28;20622;-83
2022/05/10 11:58:20;;;;;;;4.05;3.33;;;26.00;44.60;;;;;;5042944;28;20053;-82
2022/05/10 12:00:51;;;;;;;3.17;2.97;;;26.50;44.00;;;;;;5023343;28;20029;-82
2022/05/10 12:03:39;;;;;;;2.88;2.65;;;26.70;42.60;;;;;;5041085;28;20478;-83
2022/05/10 12:06:23;;;;;;;4.20;3.30;;;26.20;42.90;;;;;;5018495;28;20030;-82
2022/05/10 12:08:50;;;;;;;6.70;3.65;;;26.10;42.90;;;;;;5040824;28;20036;-82
2022/05/10 12:11:27;;;;;;;4.15;3.70;;;25.60;43.60;;;;;;5040618;28;20021;-82
2022/05/10 12:22:16;;;;;;;2.90;2.70;;;27.30;42.40;;;;;;5039711;28;20036;-82
2022/05/10 12:24:46;;;;;;;3.50;3.20;;;27.40;41.60;;;;;;5038745;28;20504;-82
2022/05/10 12:27:12;;;;;;;3.50;3.20;;;27.50;41.10;;;;;;5038792;28;20493;-82
2022/05/10 12:29:38;;;;;;;3.30;3.10;;;27.90;40.60;;;;;;5038810;28;20029;-82
2022/05/10 12:32:20;;;;;;;2.83;2.63;;;28.10;40.20;;;;;;5039077;28;20097;-82
2022/05/10 12:34:57;;;;;;;3.45;3.00;;;27.60;40.40;;;;;;5035361;28;20026;-82
2022/05/10 12:37:26;;;;;;;3.22;2.92;;;27.10;41.30;;;;;;5019518;28;20025;-82
2022/05/10 12:39:57;;;;;;;2.83;2.63;;;27.10;41.90;;;;;;5039457;28;20017;-82
2022/05/10 12:42:57;;;;;;;5.35;4.90;;;27.40;41.50;;;;;;5039277;28;20030;-82
2022/05/10 12:45:55;;;;;;;4.32;4.03;;;27.40;41.30;;;;;;5044666;28;20021;-84
2022/05/10 12:48:50;;;;;;;9.05;4.35;;;27.00;43.00;;;;;;5048914;28;20037;-85
2022/05/10 12:51:46;;;;;;;4.70;3.70;;;26.40;42.80;;;;;;5030535;28;20056;-85
2022/05/10 12:54:24;;;;;;;4.15;2.65;;;26.30;43.40;;;;;;5041043;28;20053;-85
2022/05/10 12:57:06;;;;;;;4.78;3.50;;;26.40;43.20;;;;;;5028608;28;20033;-84
2022/05/10 12:59:32;;;;;;;5.95;3.50;;;26.90;42.20;;;;;;5030461;28;20026;-85
2022/05/10 13:01:58;;;;;;;3.67;3.38;;;27.10;41.90;;;;;;5048906;28;20025;-85
2022/05/10 13:04:30;;;;;;;3.95;3.55;;;26.70;42.10;;;;;;5044714;28;20113;-83
2022/05/10 13:07:02;;;;;;;5.20;3.88;;;25.90;44.00;;;;;;5037503;28;20076;-84
2022/05/10 13:09:30;;;;;;;;;;;25.30;46.00;;;;;;5032768;28;20025;-84
2022/05/10 13:12:06;;;;;;;6.97;5.15;;;24.70;46.60;;;;;;5032555;28;19913;-84
2022/05/10 13:14:38;;;;;;;4.65;4.20;;;24.40;47.50;;;;;;5049624;28;20026;-84
2022/05/10 13:17:05;;;;;;;4.00;3.60;;;24.10;47.40;;;;;;5050558;28;20085;-84
2022/05/10 13:19:31;;;;;;;5.80;4.72;;;24.10;48.00;;;;;;5046882;28;20022;-86
2022/05/10 13:21:58;;;;;;;6.05;4.88;;;24.20;47.00;;;;;;5030905;28;20029;-85
2022/05/10 13:24:28;;;;;;;5.15;3.45;;;24.10;46.70;;;;;;5033639;28;20021;-84
2022/05/10 13:27:00;;;;;;;3.78;3.47;;;24.00;47.60;;;;;;5034931;28;20018;-86
2022/05/10 13:29:48;;;;;;;4.95;4.55;;;24.00;47.50;;;;;;5054620;28;20018;-84
2022/05/10 13:32:42;;;;;;;3.95;3.58;;;24.10;47.30;;;;;;5036821;28;20045;-85
2022/05/10 13:35:13;;;;;;;3.88;3.40;;;24.80;46.90;;;;;;5038170;28;20025;-84
2022/05/10 13:37:42;;;;;;;3.05;2.85;;;25.50;45.40;;;;;;5035199;28;20033;-84
2022/05/10 13:40:26;;;;;;;3.35;3.03;;;26.10;44.20;;;;;;5026606;28;20022;-85